createdAt,value
2023-04-08T00:00:50.064Z,9.90
2023-04-08T00:01:52.612Z,10.37
2023-04-08T00:02:55.153Z,10.87
2023-04-08T00:03:57.674Z,10.70
2023-04-08T00:05:00.418Z,11.10
2023-04-08T00:06:07.063Z,11.17
2023-04-08T00:07:09.312Z,11.10
2023-04-08T00:08:11.628Z,11.00
2023-04-08T00:09:13.947Z,11.27
2023-04-08T00:10:16.594Z,10.20
2023-04-08T00:11:18.894Z,11.00
2023-04-08T00:12:22.847Z,10.77
2023-04-08T00:13:26.903Z,10.73
2023-04-08T00:14:29.342Z,10.77
2023-04-08T00:15:31.717Z,10.97
2023-04-08T00:16:34.116Z,11.33
2023-04-08T00:17:37.006Z,11.10
2023-04-08T00:18:39.374Z,11.00
2023-04-08T00:19:41.657Z,11.27
2023-04-08T00:20:44.414Z,11.00
2023-04-08T00:21:46.922Z,11.00
2023-04-08T00:22:50.248Z,10.67
2023-04-08T00:23:52.821Z,10.97
2023-04-08T00:24:56.171Z,11.20
2023-04-08T00:25:58.433Z,10.57
2023-04-08T00:27:01.009Z,10.80
2023-04-08T00:28:03.490Z,10.60
2023-04-08T00:29:05.920Z,10.20
2023-04-08T00:30:08.613Z,10.53
2023-04-08T00:31:11.257Z,11.13
2023-04-08T00:32:14.837Z,10.47
2023-04-08T00:33:17.477Z,10.57
2023-04-08T00:34:22.583Z,10.80
2023-04-08T00:35:25.012Z,10.57
2023-04-08T00:36:28.343Z,11.03
2023-04-08T00:37:31.628Z,10.40
2023-04-08T00:38:33.988Z,10.80
2023-04-08T00:39:37.887Z,10.20
2023-04-08T00:40:40.489Z,11.03
2023-04-08T00:41:43.433Z,10.53
2023-04-08T00:42:46.132Z,10.67
2023-04-08T00:43:48.880Z,10.33
2023-04-08T00:44:54.385Z,10.63
2023-04-08T00:45:56.754Z,10.20
2023-04-08T00:47:00.879Z,10.27
2023-04-08T00:48:04.170Z,10.30
2023-04-08T00:49:07.902Z,10.60
2023-04-08T00:50:13.526Z,9.87
2023-04-08T00:51:16.558Z,10.60
2023-04-08T00:52:18.879Z,10.50
2023-04-08T00:53:21.596Z,10.20
2023-04-08T00:54:24.412Z,9.97
2023-04-08T00:55:29.126Z,9.97
2023-04-08T00:56:33.080Z,9.87
2023-04-08T00:57:35.978Z,9.97
2023-04-08T00:58:39.177Z,9.77
2023-04-08T00:59:42.711Z,9.13
2023-04-08T01:00:54.328Z,9.67
2023-04-08T01:02:07.545Z,9.93
2023-04-08T01:03:10.495Z,9.47
2023-04-08T01:04:49.807Z,9.60
2023-04-08T01:06:13.515Z,9.90
2023-04-08T01:07:22.625Z,9.70
2023-04-08T01:08:28.467Z,9.43
2023-04-08T01:09:35.967Z,9.33
2023-04-08T01:10:43.262Z,9.20
2023-04-08T01:11:49.408Z,8.83
2023-04-08T01:12:56.873Z,8.97
2023-04-08T01:14:01.562Z,8.70
2023-04-08T01:15:07.269Z,9.40
2023-04-08T01:16:13.433Z,9.23
2023-04-08T01:17:22.127Z,9.07
2023-04-08T01:18:24.834Z,9.03
2023-04-08T01:19:34.486Z,9.27
2023-04-08T01:20:37.764Z,9.33
2023-04-08T01:21:40.916Z,9.30
2023-04-08T01:22:55.355Z,8.57
2023-04-08T01:24:14.052Z,9.33
2023-04-08T01:25:25.912Z,8.93
2023-04-08T01:26:29.556Z,8.90
2023-04-08T01:27:33.734Z,8.50
2023-04-08T01:28:38.324Z,8.73
2023-04-08T01:29:42.324Z,8.67
2023-04-08T01:30:46.433Z,8.77
2023-04-08T01:31:49.617Z,8.17
2023-04-08T01:32:54.985Z,8.37
2023-04-08T01:33:59.261Z,8.43
2023-04-08T01:35:03.244Z,8.23
2023-04-08T01:36:06.934Z,8.40
2023-04-08T01:37:15.119Z,8.10
2023-04-08T01:38:20.285Z,7.70
2023-04-08T01:39:24.821Z,7.83
2023-04-08T01:40:27.388Z,7.97
2023-04-08T01:41:30.871Z,8.27
2023-04-08T01:42:34.432Z,7.67
2023-04-08T01:43:39.658Z,8.00
2023-04-08T01:44:42.948Z,7.67
2023-04-08T01:45:47.908Z,8.33
2023-04-08T01:46:54.524Z,8.17
2023-04-08T01:47:58.554Z,7.63
2023-04-08T01:49:01.708Z,7.80
2023-04-08T01:50:06.670Z,8.07
2023-04-08T01:51:09.625Z,7.83
2023-04-08T01:52:13.642Z,7.73
2023-04-08T01:53:16.102Z,7.30
2023-04-08T01:54:18.455Z,7.80
2023-04-08T01:55:21.371Z,7.57
2023-04-08T01:56:25.912Z,7.53
2023-04-08T01:57:32.288Z,7.50
2023-04-08T01:58:54.852Z,7.50
2023-04-08T02:00:01.291Z,7.67
2023-04-08T02:01:06.448Z,7.03
2023-04-08T02:02:10.028Z,6.90
2023-04-08T02:03:13.235Z,7.70
2023-04-08T02:04:15.941Z,7.30
2023-04-08T02:05:22.081Z,7.30
2023-04-08T02:06:28.140Z,7.60
2023-04-08T02:07:30.463Z,7.40
2023-04-08T02:08:35.725Z,7.63
2023-04-08T02:09:40.154Z,7.63
2023-04-08T02:10:42.772Z,7.63
2023-04-08T02:11:45.130Z,7.50
2023-04-08T02:12:48.731Z,7.53
2023-04-08T02:13:51.674Z,7.50
2023-04-08T02:14:54.679Z,7.03
2023-04-08T02:16:20.299Z,7.13
2023-04-08T02:17:36.528Z,7.27
2023-04-08T02:18:45.206Z,7.37
2023-04-08T02:20:02.313Z,7.20
2023-04-08T02:21:19.526Z,7.40
2023-04-08T02:22:39.951Z,7.47
2023-04-08T02:23:46.677Z,7.93
2023-04-08T02:24:51.329Z,7.67
2023-04-08T02:25:56.836Z,7.40
2023-04-08T02:27:04.410Z,7.40
2023-04-08T02:28:11.179Z,7.50
2023-04-08T02:29:18.256Z,7.17
2023-04-08T02:30:22.134Z,6.83
2023-04-08T02:31:26.699Z,7.60
2023-04-08T02:32:31.416Z,6.83
2023-04-08T02:33:36.976Z,6.73
2023-04-08T02:34:41.924Z,6.87
2023-04-08T02:35:46.115Z,6.73
2023-04-08T02:36:48.773Z,6.67
2023-04-08T02:37:52.856Z,7.40
2023-04-08T02:38:55.442Z,6.93
2023-04-08T02:39:57.958Z,6.70
2023-04-08T02:41:00.364Z,6.70
2023-04-08T02:42:09.047Z,6.80
2023-04-08T02:43:13.015Z,6.73
2023-04-08T02:44:15.636Z,6.80
2023-04-08T02:45:18.726Z,6.70
2023-04-08T02:46:22.973Z,6.80
2023-04-08T02:47:26.546Z,6.73
2023-04-08T02:48:29.368Z,6.07
2023-04-08T02:49:31.767Z,6.63
2023-04-08T02:50:34.048Z,6.47
2023-04-08T02:51:36.316Z,6.93
2023-04-08T02:52:39.013Z,6.70
2023-04-08T02:53:41.546Z,6.70
2023-04-08T02:54:44.990Z,6.10
2023-04-08T02:55:47.273Z,6.90
2023-04-08T02:56:49.539Z,6.13
2023-04-08T02:57:59.201Z,5.77
2023-04-08T02:59:01.496Z,6.13
2023-04-08T03:00:05.475Z,6.23
2023-04-08T03:01:14.082Z,5.67
2023-04-08T03:02:17.861Z,6.00
2023-04-08T03:03:28.267Z,6.47
2023-04-08T03:04:30.947Z,6.03
2023-04-08T03:05:33.992Z,5.90
2023-04-08T03:06:36.725Z,6.37
2023-04-08T03:07:40.916Z,5.97
2023-04-08T03:08:43.426Z,6.20
2023-04-08T03:09:45.754Z,6.10
2023-04-08T03:10:49.606Z,5.97
2023-04-08T03:11:55.035Z,6.07
2023-04-08T03:12:57.371Z,5.70
2023-04-08T03:14:00.038Z,5.83
2023-04-08T03:15:03.732Z,5.87
2023-04-08T03:16:06.541Z,6.37
2023-04-08T03:17:08.831Z,5.50
2023-04-08T03:18:11.697Z,5.63
2023-04-08T03:19:13.983Z,6.10
2023-04-08T03:20:16.398Z,5.40
2023-04-08T03:21:18.815Z,5.33
2023-04-08T03:22:21.177Z,5.57
2023-04-08T03:23:23.864Z,5.30
2023-04-08T03:24:26.525Z,5.57
2023-04-08T03:25:29.758Z,5.37
2023-04-08T03:26:32.042Z,5.70
2023-04-08T03:27:37.244Z,5.20
2023-04-08T03:28:41.765Z,5.30
2023-04-08T03:29:48.280Z,5.50
2023-04-08T03:30:51.303Z,5.60
2023-04-08T03:31:53.781Z,5.33
2023-04-08T03:32:56.395Z,5.13
2023-04-08T03:33:58.664Z,5.47
2023-04-08T03:35:02.304Z,5.00
2023-04-08T03:36:05.344Z,4.90
2023-04-08T03:37:07.870Z,5.40
2023-04-08T03:38:10.121Z,5.07
2023-04-08T03:39:12.781Z,4.90
2023-04-08T03:40:15.138Z,5.17
2023-04-08T03:41:17.675Z,4.70
2023-04-08T03:42:20.036Z,4.53
2023-04-08T03:43:22.516Z,5.10
2023-04-08T03:44:25.899Z,4.73
2023-04-08T03:45:28.321Z,4.90
2023-04-08T03:46:31.374Z,5.07
2023-04-08T03:47:34.507Z,4.40
2023-04-08T03:48:37.321Z,4.50
2023-04-08T03:49:39.618Z,4.80
2023-04-08T03:50:41.966Z,4.50
2023-04-08T03:51:44.251Z,4.50
2023-04-08T03:52:46.517Z,4.63
2023-04-08T03:53:49.436Z,4.53
2023-04-08T03:54:51.775Z,4.40
2023-04-08T03:55:54.232Z,4.67
2023-04-08T03:56:56.555Z,4.70
2023-04-08T03:57:59.164Z,4.60
2023-04-08T03:59:01.835Z,4.20
2023-04-08T04:00:04.934Z,4.10
2023-04-08T04:01:14.428Z,4.23
2023-04-08T04:02:19.391Z,4.37
2023-04-08T04:03:21.886Z,4.47
2023-04-08T04:04:26.947Z,4.40
2023-04-08T04:05:29.555Z,4.83
2023-04-08T04:06:33.183Z,4.50
2023-04-08T04:07:36.574Z,4.40
2023-04-08T04:08:39.308Z,4.57
2023-04-08T04:09:41.694Z,4.57
2023-04-08T04:10:43.993Z,4.03
2023-04-08T04:11:46.768Z,4.27
2023-04-08T04:12:50.599Z,4.27
2023-04-08T04:13:52.957Z,4.23
2023-04-08T04:14:55.896Z,4.23
2023-04-08T04:16:01.441Z,4.13
2023-04-08T04:17:03.772Z,3.93
2023-04-08T04:18:06.739Z,4.30
2023-04-08T04:19:09.105Z,4.20
2023-04-08T04:20:11.795Z,4.33
2023-04-08T04:21:14.049Z,4.00
2023-04-08T04:22:17.391Z,4.33
2023-04-08T04:23:21.550Z,4.23
2023-04-08T04:24:23.804Z,4.07
2023-04-08T04:25:26.064Z,4.40
2023-04-08T04:26:31.561Z,4.27
2023-04-08T04:27:33.810Z,4.50
2023-04-08T04:28:37.604Z,3.87
2023-04-08T04:29:39.894Z,4.03
2023-04-08T04:30:43.496Z,3.90
2023-04-08T04:31:46.724Z,3.90
2023-04-08T04:32:49.196Z,4.53
2023-04-08T04:33:51.657Z,4.60
2023-04-08T04:34:54.033Z,4.37
2023-04-08T04:35:56.455Z,4.30
2023-04-08T04:36:58.862Z,4.30
2023-04-08T04:38:02.120Z,4.50
2023-04-08T04:39:07.188Z,4.17
2023-04-08T04:40:09.651Z,3.97
2023-04-08T04:41:12.308Z,4.50
2023-04-08T04:42:15.914Z,4.43
2023-04-08T04:43:18.285Z,4.53
2023-04-08T04:44:21.991Z,4.23
2023-04-08T04:45:24.519Z,4.20
2023-04-08T04:46:26.946Z,4.50
2023-04-08T04:47:29.394Z,3.93
2023-04-08T04:48:31.727Z,4.00
2023-04-08T04:49:34.010Z,4.37
2023-04-08T04:50:36.300Z,4.30
2023-04-08T04:51:39.984Z,4.50
2023-04-08T04:52:42.266Z,4.23
2023-04-08T04:53:44.789Z,4.90
2023-04-08T04:54:47.392Z,4.60
2023-04-08T04:55:53.047Z,4.40
2023-04-08T04:56:56.459Z,4.60
2023-04-08T04:57:58.706Z,4.50
2023-04-08T04:59:01.086Z,5.07
2023-04-08T05:00:05.616Z,4.70
2023-04-08T05:01:13.671Z,4.80
2023-04-08T05:02:22.110Z,4.50
2023-04-08T05:03:24.798Z,4.80
2023-04-08T05:04:27.200Z,4.50
2023-04-08T05:05:29.456Z,4.63
2023-04-08T05:06:31.827Z,4.97
2023-04-08T05:07:37.994Z,4.90
2023-04-08T05:08:40.353Z,4.73
2023-04-08T05:09:42.670Z,4.70
2023-04-08T05:10:44.905Z,4.80
2023-04-08T05:11:47.189Z,4.90
2023-04-08T05:12:49.422Z,4.50
2023-04-08T05:13:53.059Z,4.50
2023-04-08T05:14:56.401Z,4.80
2023-04-08T05:16:00.474Z,5.00
2023-04-08T05:17:04.840Z,5.00
2023-04-08T05:18:08.916Z,4.60
2023-04-08T05:19:11.518Z,4.37
2023-04-08T05:20:14.929Z,4.30
2023-04-08T05:21:18.730Z,4.13
2023-04-08T05:22:21.159Z,4.50
2023-04-08T05:23:23.454Z,4.23
2023-04-08T05:24:26.108Z,4.37
2023-04-08T05:25:28.368Z,4.13
2023-04-08T05:26:31.175Z,4.20
2023-04-08T05:27:37.754Z,4.47
2023-04-08T05:28:40.093Z,4.77
2023-04-08T05:29:42.660Z,4.13
2023-04-08T05:30:52.497Z,4.40
2023-04-08T05:31:54.796Z,4.40
2023-04-08T05:33:00.348Z,4.27
2023-04-08T05:34:04.194Z,4.40
2023-04-08T05:35:06.909Z,4.33
2023-04-08T05:36:11.781Z,4.27
2023-04-08T05:37:14.023Z,4.00
2023-04-08T05:38:16.297Z,4.30
2023-04-08T05:39:19.754Z,4.50
2023-04-08T05:40:22.093Z,4.33
2023-04-08T05:41:26.314Z,4.43
2023-04-08T05:42:28.703Z,4.50
2023-04-08T05:43:33.385Z,4.67
2023-04-08T05:44:35.972Z,4.63
2023-04-08T05:45:38.267Z,4.70
2023-04-08T05:46:40.731Z,4.80
2023-04-08T05:47:43.509Z,4.50
2023-04-08T05:48:45.840Z,4.53
2023-04-08T05:49:49.638Z,5.10
2023-04-08T05:50:53.459Z,5.10
2023-04-08T05:51:55.840Z,4.73
2023-04-08T05:52:58.135Z,5.33
2023-04-08T05:54:01.498Z,5.10
2023-04-08T05:55:04.058Z,5.47
2023-04-08T05:56:06.499Z,5.97
2023-04-08T05:57:10.333Z,5.27
2023-04-08T05:58:12.859Z,5.53
2023-04-08T05:59:17.461Z,5.80
2023-04-08T06:00:21.049Z,5.60
2023-04-08T06:01:23.804Z,6.23
2023-04-08T06:02:26.315Z,5.70
2023-04-08T06:03:29.238Z,5.97
2023-04-08T06:04:31.662Z,6.07
2023-04-08T06:05:35.177Z,6.00
2023-04-08T06:06:40.118Z,6.60
2023-04-08T06:07:42.394Z,5.90
2023-04-08T06:08:44.662Z,6.30
2023-04-08T06:09:46.909Z,5.73
2023-04-08T06:10:52.697Z,6.33
2023-04-08T06:11:55.067Z,5.93
2023-04-08T06:12:57.381Z,6.30
2023-04-08T06:13:59.779Z,6.57
2023-04-08T06:15:02.134Z,6.50
2023-04-08T06:16:24.642Z,6.00
2023-04-08T06:17:29.704Z,6.37
2023-04-08T06:18:31.954Z,6.47
2023-04-08T06:19:35.872Z,6.80
2023-04-08T06:20:38.204Z,6.60
2023-04-08T06:21:40.516Z,7.23
2023-04-08T06:22:42.788Z,6.90
2023-04-08T06:23:45.051Z,7.63
2023-04-08T06:24:49.599Z,7.17
2023-04-08T06:25:54.266Z,7.40
2023-04-08T06:26:59.089Z,7.63
2023-04-08T06:28:01.934Z,7.50
2023-04-08T06:29:05.256Z,7.50
2023-04-08T06:30:09.697Z,7.70
2023-04-08T06:31:12.168Z,7.70
2023-04-08T06:32:14.680Z,7.10
2023-04-08T06:33:17.041Z,8.23
2023-04-08T06:34:20.322Z,8.13
2023-04-08T06:35:23.802Z,7.90
2023-04-08T06:36:26.978Z,8.13
2023-04-08T06:37:29.312Z,9.83
2023-04-08T06:38:35.199Z,9.80
2023-04-08T06:39:37.542Z,9.30
2023-04-08T06:40:40.703Z,9.90
2023-04-08T06:41:46.817Z,10.40
2023-04-08T06:43:09.448Z,10.10
2023-04-08T06:44:15.134Z,11.17
2023-04-08T06:45:19.013Z,11.33
2023-04-08T06:46:24.606Z,11.27
2023-04-08T06:47:27.911Z,10.93
2023-04-08T06:48:33.231Z,10.70
2023-04-08T06:49:36.614Z,11.50
2023-04-08T06:50:38.944Z,11.03
2023-04-08T06:51:41.197Z,10.93
2023-04-08T06:52:43.485Z,11.33
2023-04-08T06:53:45.844Z,11.23
2023-04-08T06:54:48.469Z,11.33
2023-04-08T06:55:51.025Z,11.63
2023-04-08T06:56:53.337Z,11.57
2023-04-08T06:57:55.594Z,11.00
2023-04-08T06:58:59.495Z,11.90
2023-04-08T07:00:01.978Z,12.00
2023-04-08T07:01:04.350Z,12.10
2023-04-08T07:02:10.885Z,12.47
2023-04-08T07:03:13.715Z,12.50
2023-04-08T07:04:16.259Z,12.30
2023-04-08T07:05:18.721Z,12.43
2023-04-08T07:06:21.299Z,12.87
2023-04-08T07:07:24.472Z,12.60
2023-04-08T07:08:28.164Z,12.63
2023-04-08T07:09:31.118Z,12.30
2023-04-08T07:10:35.227Z,12.07
2023-04-08T07:11:38.878Z,12.27
2023-04-08T07:12:41.759Z,12.13
2023-04-08T07:13:44.077Z,12.80
2023-04-08T07:14:46.845Z,13.13
2023-04-08T07:15:49.195Z,14.50
2023-04-08T07:16:51.587Z,13.47
2023-04-08T07:17:57.264Z,13.17
2023-04-08T07:18:59.696Z,13.57
2023-04-08T07:20:02.056Z,13.90
2023-04-08T07:21:05.174Z,13.80
2023-04-08T07:22:07.456Z,12.50
2023-04-08T07:23:09.924Z,13.43
2023-04-08T07:24:12.868Z,13.50
2023-04-08T07:25:16.766Z,13.00
2023-04-08T07:26:19.419Z,12.77
2023-04-08T07:27:22.245Z,13.07
2023-04-08T07:28:26.922Z,13.10
2023-04-08T07:29:29.207Z,13.73
2023-04-08T07:30:31.471Z,13.57
2023-04-08T07:31:42.468Z,13.30
2023-04-08T07:32:44.806Z,12.73
2023-04-08T07:33:48.946Z,13.40
2023-04-08T07:34:52.346Z,14.40
2023-04-08T07:35:55.320Z,14.03
2023-04-08T07:36:58.412Z,15.20
2023-04-08T07:38:01.155Z,13.80
2023-04-08T07:39:04.094Z,14.50
2023-04-08T07:40:09.409Z,14.43
2023-04-08T07:41:11.835Z,14.23
2023-04-08T07:42:15.732Z,14.30
2023-04-08T07:43:19.425Z,13.60
2023-04-08T07:44:22.368Z,13.53
2023-04-08T07:45:26.151Z,13.47
2023-04-08T07:46:28.604Z,12.10
2023-04-08T07:47:30.990Z,11.53
2023-04-08T07:48:35.096Z,11.70
2023-04-08T07:49:39.778Z,11.40
2023-04-08T07:51:08.641Z,11.73
2023-04-08T07:52:08.572Z,11.70
2023-04-08T07:53:12.889Z,10.83
2023-04-08T07:54:19.633Z,11.17
2023-04-08T07:55:27.120Z,10.63
2023-04-08T07:56:30.840Z,10.50
2023-04-08T07:57:34.263Z,9.90
2023-04-08T07:58:38.165Z,10.53
2023-04-08T07:59:40.881Z,9.93
2023-04-08T08:00:43.251Z,10.47
2023-04-08T08:01:47.148Z,9.50
2023-04-08T08:02:49.918Z,9.83
2023-04-08T08:03:53.574Z,9.23
2023-04-08T08:04:56.535Z,9.53
2023-04-08T08:05:58.953Z,9.10
2023-04-08T08:07:01.252Z,8.40
2023-04-08T08:08:07.718Z,9.20
2023-04-08T08:09:10.781Z,8.83
2023-04-08T08:10:16.031Z,9.20
2023-04-08T08:11:18.383Z,8.67
2023-04-08T08:12:21.048Z,7.17
2023-04-08T08:13:23.315Z,6.47
2023-04-08T08:14:27.172Z,6.03
2023-04-08T08:15:29.420Z,6.30
2023-04-08T08:16:33.965Z,6.60
2023-04-08T08:17:37.584Z,5.83
2023-04-08T08:18:41.221Z,5.70
2023-04-08T08:19:43.527Z,5.57
2023-04-08T08:20:47.457Z,4.93
2023-04-08T08:21:50.010Z,5.77
2023-04-08T08:22:57.402Z,5.70
2023-04-08T08:24:00.215Z,5.17
2023-04-08T08:25:02.749Z,4.97
2023-04-08T08:26:10.760Z,4.93
2023-04-08T08:27:13.194Z,5.00
2023-04-08T08:28:15.446Z,5.10
2023-04-08T08:29:17.706Z,4.90
2023-04-08T08:30:22.212Z,5.37
2023-04-08T08:31:25.612Z,5.20
2023-04-08T08:32:28.056Z,5.17
2023-04-08T08:33:30.509Z,5.53
2023-04-08T08:34:32.797Z,5.27
2023-04-08T08:35:35.211Z,5.30
2023-04-08T08:36:37.559Z,5.40
2023-04-08T08:37:39.808Z,5.87
2023-04-08T08:38:43.132Z,5.87
2023-04-08T08:39:45.719Z,5.40
2023-04-08T08:40:56.698Z,5.47
2023-04-08T08:42:00.553Z,5.67
2023-04-08T08:43:03.497Z,5.90
2023-04-08T08:44:07.632Z,5.20
2023-04-08T08:45:11.193Z,5.10
2023-04-08T08:46:17.548Z,4.87
2023-04-08T08:47:19.872Z,5.20
2023-04-08T08:48:22.242Z,5.23
2023-04-08T08:49:25.723Z,5.10
2023-04-08T08:50:28.192Z,5.00
2023-04-08T08:51:33.881Z,4.90
2023-04-08T08:52:37.351Z,5.90
2023-04-08T08:53:49.805Z,5.33
2023-04-08T08:54:59.454Z,5.67
2023-04-08T08:56:17.262Z,5.80
2023-04-08T08:57:20.817Z,5.73
2023-04-08T08:58:28.148Z,5.70
2023-04-08T08:59:30.639Z,5.23
2023-04-08T09:00:34.945Z,5.43
2023-04-08T09:01:40.885Z,5.67
2023-04-08T09:02:43.990Z,5.57
2023-04-08T09:03:46.702Z,6.00
2023-04-08T09:05:03.328Z,6.27
2023-04-08T09:06:07.250Z,7.27
2023-04-08T09:07:11.797Z,6.73
2023-04-08T09:08:34.061Z,6.77
2023-04-08T09:09:49.580Z,6.20
2023-04-08T09:10:52.735Z,6.60
2023-04-08T09:12:05.098Z,6.07
2023-04-08T09:13:07.769Z,5.73
2023-04-08T09:14:19.263Z,6.40
2023-04-08T09:15:21.659Z,6.23
2023-04-08T09:16:24.283Z,6.63
2023-04-08T09:17:41.613Z,6.80
2023-04-08T09:18:46.319Z,6.60
2023-04-08T09:20:10.088Z,6.60
2023-04-08T09:21:13.702Z,6.77
2023-04-08T09:22:18.555Z,6.57
2023-04-08T09:23:21.039Z,7.10
2023-04-08T09:24:32.896Z,6.20
2023-04-08T09:25:38.518Z,7.07
2023-04-08T09:26:47.076Z,7.00
2023-04-08T09:27:49.359Z,6.90
2023-04-08T09:29:18.192Z,6.90
2023-04-08T09:30:26.176Z,6.70
2023-04-08T09:31:33.910Z,6.80
2023-04-08T09:32:56.698Z,6.60
2023-04-08T09:34:00.959Z,7.20
2023-04-08T09:35:06.880Z,6.70
2023-04-08T09:36:09.335Z,7.73
2023-04-08T09:37:12.108Z,7.00
2023-04-08T09:38:14.432Z,7.17
2023-04-08T09:39:16.916Z,7.30
2023-04-08T09:40:19.872Z,7.20
2023-04-08T09:41:23.976Z,6.90
2023-04-08T09:42:27.026Z,7.20
2023-04-08T09:43:29.416Z,6.80
2023-04-08T09:44:33.410Z,7.17
2023-04-08T09:45:39.778Z,7.37
2023-04-08T09:46:50.956Z,7.73
2023-04-08T09:48:02.741Z,7.57
2023-04-08T09:49:13.250Z,7.20
2023-04-08T09:50:20.168Z,7.23
2023-04-08T09:51:24.396Z,7.40
2023-04-08T09:52:40.041Z,7.70
2023-04-08T09:53:49.660Z,7.67
2023-04-08T09:55:09.480Z,8.00
2023-04-08T09:56:14.087Z,7.70
2023-04-08T09:57:25.317Z,7.77
2023-04-08T09:58:39.957Z,7.53
2023-04-08T09:59:49.157Z,7.63
2023-04-08T10:00:54.602Z,7.60
2023-04-08T10:02:01.922Z,7.67
2023-04-08T10:03:16.536Z,7.47
2023-04-08T10:04:21.581Z,7.23
2023-04-08T10:05:25.273Z,8.07
2023-04-08T10:06:29.982Z,8.33
2023-04-08T10:07:32.646Z,8.23
2023-04-08T10:08:37.443Z,8.97
2023-04-08T10:09:41.823Z,8.60
2023-04-08T10:10:46.191Z,8.50
2023-04-08T10:11:50.999Z,8.60
2023-04-08T10:12:53.376Z,7.93
2023-04-08T10:13:55.871Z,8.50
2023-04-08T10:15:25.992Z,8.80
2023-04-08T10:16:28.515Z,9.03
2023-04-08T10:17:36.873Z,8.70
2023-04-08T10:18:41.933Z,8.53
2023-04-08T10:19:44.789Z,8.33
2023-04-08T10:20:49.374Z,9.07
2023-04-08T10:21:51.706Z,8.67
2023-04-08T10:22:53.982Z,8.40
2023-04-08T10:24:01.589Z,8.43
2023-04-08T10:25:30.247Z,8.43
2023-04-08T10:26:36.019Z,8.43
2023-04-08T10:27:42.480Z,8.70
2023-04-08T10:28:44.806Z,8.27
2023-04-08T10:29:50.352Z,8.93
2023-04-08T10:30:55.622Z,8.00
2023-04-08T10:31:58.146Z,7.90
2023-04-08T10:33:01.073Z,8.10
2023-04-08T10:34:24.966Z,8.03
2023-04-08T10:35:31.665Z,7.53
2023-04-08T10:36:34.108Z,7.80
2023-04-08T10:37:36.680Z,8.10
2023-04-08T10:38:45.117Z,7.87
2023-04-08T10:39:52.503Z,7.97
2023-04-08T10:40:59.500Z,8.30
2023-04-08T10:42:08.702Z,8.20
2023-04-08T10:43:12.271Z,8.53
2023-04-08T10:44:27.205Z,8.23
2023-04-08T10:45:31.828Z,8.47
2023-04-08T10:46:41.237Z,8.47
2023-04-08T10:47:43.821Z,8.77
2023-04-08T10:49:00.055Z,8.80
2023-04-08T10:50:12.969Z,8.50
2023-04-08T10:51:17.849Z,8.60
2023-04-08T10:52:21.802Z,9.37
2023-04-08T10:53:27.091Z,8.70
2023-04-08T10:54:29.907Z,9.13
2023-04-08T10:55:32.571Z,9.00
2023-04-08T10:56:36.948Z,8.60
2023-04-08T10:57:41.573Z,9.03
2023-04-08T10:58:55.331Z,9.13
2023-04-08T10:59:59.009Z,9.13
2023-04-08T11:01:08.711Z,9.00
2023-04-08T11:02:15.236Z,8.53
2023-04-08T11:03:17.834Z,8.90
2023-04-08T11:04:20.853Z,8.67
2023-04-08T11:05:23.710Z,8.60
2023-04-08T11:06:26.179Z,9.20
2023-04-08T11:07:28.969Z,9.10
2023-04-08T11:08:35.220Z,8.47
2023-04-08T11:09:37.815Z,8.67
2023-04-08T11:10:44.674Z,8.83
2023-04-08T11:11:47.356Z,8.63
2023-04-08T11:12:50.598Z,8.47
2023-04-08T11:13:53.969Z,9.23
2023-04-08T11:14:57.878Z,8.23
2023-04-08T11:16:01.714Z,8.57
2023-04-08T11:17:06.668Z,9.20
2023-04-08T11:18:10.700Z,8.97
2023-04-08T11:19:15.674Z,8.93
2023-04-08T11:20:18.318Z,8.70
2023-04-08T11:21:22.531Z,9.10
2023-04-08T11:22:25.217Z,9.10
2023-04-08T11:23:27.914Z,9.20
2023-04-08T11:24:30.544Z,9.33
2023-04-08T11:25:32.962Z,9.37
2023-04-08T11:26:38.060Z,8.90
2023-04-08T11:27:41.050Z,9.23
2023-04-08T11:28:45.940Z,9.17
2023-04-08T11:29:50.846Z,9.63
2023-04-08T11:30:55.467Z,9.23
2023-04-08T11:31:58.493Z,9.60
2023-04-08T11:33:03.723Z,9.23
2023-04-08T11:34:06.581Z,8.87
2023-04-08T11:35:10.436Z,9.60
2023-04-08T11:36:14.503Z,10.00
2023-04-08T11:37:17.611Z,9.80
2023-04-08T11:38:23.558Z,9.87
2023-04-08T11:39:26.778Z,9.70
2023-04-08T11:40:30.273Z,9.80
2023-04-08T11:41:43.951Z,9.07
2023-04-08T11:42:48.651Z,9.57
2023-04-08T11:43:52.565Z,9.47
2023-04-08T11:44:55.241Z,9.40
2023-04-08T11:45:57.929Z,9.33
2023-04-08T11:47:02.339Z,9.33
2023-04-08T11:48:13.801Z,9.87
2023-04-08T11:49:19.579Z,9.83
2023-04-08T11:50:27.212Z,9.30
2023-04-08T11:51:29.745Z,9.57
2023-04-08T11:52:51.262Z,8.93
2023-04-08T11:53:56.386Z,9.57
2023-04-08T11:54:59.094Z,9.67
2023-04-08T11:56:16.950Z,9.60
2023-04-08T11:57:29.616Z,9.30
2023-04-08T11:58:31.898Z,9.40
2023-04-08T11:59:34.209Z,10.20
2023-04-08T12:00:37.448Z,10.07
2023-04-08T12:01:39.822Z,9.97
2023-04-08T12:02:44.968Z,10.43
2023-04-08T12:03:58.817Z,10.53
2023-04-08T12:05:02.074Z,10.87
2023-04-08T12:06:05.712Z,10.60
2023-04-08T12:07:08.575Z,10.80
2023-04-08T12:08:11.148Z,11.33
2023-04-08T12:09:15.101Z,11.77
2023-04-08T12:10:17.486Z,11.10
2023-04-08T12:11:20.389Z,12.20
2023-04-08T12:12:23.419Z,12.20
2023-04-08T12:13:26.070Z,11.90
2023-04-08T12:14:29.711Z,11.97
2023-04-08T12:15:33.009Z,12.27
2023-04-08T12:16:35.783Z,12.73
2023-04-08T12:17:41.253Z,12.07
2023-04-08T12:18:43.968Z,13.27
2023-04-08T12:19:47.393Z,14.43
2023-04-08T12:20:49.802Z,13.83
2023-04-08T12:21:52.194Z,13.03
2023-04-08T12:22:55.995Z,13.40
2023-04-08T12:23:58.531Z,13.13
2023-04-08T12:25:03.459Z,12.97
2023-04-08T12:26:06.017Z,13.53
2023-04-08T12:27:11.724Z,13.70
2023-04-08T12:28:15.224Z,13.53
2023-04-08T12:29:17.502Z,13.73
2023-04-08T12:30:21.508Z,14.03
2023-04-08T12:31:23.996Z,14.10
2023-04-08T12:32:28.418Z,14.40
2023-04-08T12:33:31.005Z,14.77
2023-04-08T12:34:33.459Z,15.37
2023-04-08T12:35:35.851Z,14.83
2023-04-08T12:36:39.926Z,14.37
2023-04-08T12:37:44.234Z,14.13
2023-04-08T12:38:48.307Z,14.70
2023-04-08T12:39:50.600Z,15.13
2023-04-08T12:40:53.516Z,14.87
2023-04-08T12:41:57.217Z,15.23
2023-04-08T12:42:59.785Z,14.50
2023-04-08T12:44:03.455Z,14.63
2023-04-08T12:45:06.944Z,14.20
2023-04-08T12:46:09.229Z,14.73
2023-04-08T12:47:13.228Z,14.40
2023-04-08T12:48:15.752Z,15.23
2023-04-08T12:49:18.213Z,15.33
2023-04-08T12:50:20.529Z,14.77
2023-04-08T12:51:22.874Z,14.33
2023-04-08T12:52:27.289Z,13.63
2023-04-08T12:53:29.690Z,13.83
2023-04-08T12:54:33.157Z,14.00
2023-04-08T12:55:35.544Z,13.73
2023-04-08T12:56:39.285Z,13.87
2023-04-08T12:57:41.659Z,13.20
2023-04-08T12:58:43.947Z,13.97
2023-04-08T12:59:46.222Z,13.87
2023-04-08T13:00:49.886Z,14.57
2023-04-08T13:01:52.926Z,14.43
2023-04-08T13:02:55.304Z,15.13
2023-04-08T13:03:57.788Z,15.67
2023-04-08T13:05:00.752Z,15.60
2023-04-08T13:06:03.064Z,14.73
2023-04-08T13:07:08.504Z,15.40
2023-04-08T13:08:14.471Z,15.03
2023-04-08T13:09:17.031Z,15.83
2023-04-08T13:10:19.342Z,15.83
2023-04-08T13:11:21.682Z,16.00
2023-04-08T13:12:24.386Z,15.13
2023-04-08T13:13:26.852Z,15.33
2023-04-08T13:14:34.442Z,15.27
2023-04-08T13:15:37.148Z,15.50
2023-04-08T13:16:39.399Z,15.07
2023-04-08T13:17:42.398Z,16.17
2023-04-08T13:18:44.865Z,14.80
2023-04-08T13:19:48.679Z,15.00
2023-04-08T13:20:52.386Z,15.47
2023-04-08T13:21:54.655Z,15.07
2023-04-08T13:22:57.430Z,15.17
2023-04-08T13:23:59.741Z,15.77
2023-04-08T13:25:02.274Z,15.57
2023-04-08T13:26:04.526Z,15.43
2023-04-08T13:27:09.889Z,14.63
2023-04-08T13:28:14.975Z,15.20
2023-04-08T13:29:17.231Z,15.67
2023-04-08T13:30:19.650Z,15.47
2023-04-08T13:31:21.981Z,15.03
2023-04-08T13:32:24.432Z,14.43
2023-04-08T13:33:26.694Z,15.30
2023-04-08T13:34:29.473Z,14.97
2023-04-08T13:35:31.758Z,15.03
2023-04-08T13:36:34.054Z,14.87
2023-04-08T13:37:37.010Z,14.87
2023-04-08T13:38:39.562Z,15.97
2023-04-08T13:39:42.036Z,15.50
2023-04-08T13:40:46.699Z,14.97
2023-04-08T13:41:50.389Z,14.50
2023-04-08T13:42:56.518Z,14.53
2023-04-08T13:43:59.280Z,14.73
2023-04-08T13:45:01.773Z,14.60
2023-04-08T13:46:04.158Z,15.20
2023-04-08T13:47:06.774Z,14.63
2023-04-08T13:48:14.002Z,15.07
2023-04-08T13:49:17.169Z,14.50
2023-04-08T13:50:19.437Z,14.80
2023-04-08T13:51:22.399Z,15.43
2023-04-08T13:52:24.981Z,14.57
2023-04-08T13:53:30.902Z,14.53
2023-04-08T13:54:33.381Z,14.30
2023-04-08T13:55:35.895Z,14.43
2023-04-08T13:56:39.279Z,14.10
2023-04-08T13:57:42.082Z,14.83
2023-04-08T13:58:49.785Z,14.00
2023-04-08T13:59:58.323Z,13.77
2023-04-08T14:01:00.922Z,14.80
2023-04-08T14:02:04.737Z,14.23
2023-04-08T14:03:07.220Z,14.83
2023-04-08T14:04:12.369Z,14.77
2023-04-08T14:05:14.631Z,13.80
2023-04-08T14:06:16.992Z,14.60
2023-04-08T14:07:20.433Z,14.60
2023-04-08T14:08:25.937Z,14.63
2023-04-08T14:09:28.752Z,14.27
2023-04-08T14:10:31.436Z,13.87